sensor_id;sensor_type;location;lat;lon;timestamp;temperature;humidity
7842;DHT22;3966;51.052;13.820;2023-07-29T00:01:27;21.00;99.90
7842;DHT22;3966;51.052;13.820;2023-07-29T00:03:53;21.00;99.90
7842;DHT22;3966;51.052;13.820;2023-07-29T00:06:18;21.20;99.90
7842;DHT22;3966;51.052;13.820;2023-07-29T00:08:44;21.20;99.90
7842;DHT22;3966;51.052;13.820;2023-07-29T00:11:10;21.30;99.90
7842;DHT22;3966;51.052;13.820;2023-07-29T00:13:35;21.30;99.90
7842;DHT22;3966;51.052;13.820;2023-07-29T00:16:01;21.20;99.90
7842;DHT22;3966;51.052;13.820;2023-07-29T00:18:26;21.20;99.90
7842;DHT22;3966;51.052;13.820;2023-07-29T00:20:53;21.10;99.90
7842;DHT22;3966;51.052;13.820;2023-07-29T00:23:18;20.90;99.90
7842;DHT22;3966;51.052;13.820;2023-07-29T00:25:45;21.10;99.90
7842;DHT22;3966;51.052;13.820;2023-07-29T00:28:11;21.20;99.90
7842;DHT22;3966;51.052;13.820;2023-07-29T00:30:37;21.20;99.90
7842;DHT22;3966;51.052;13.820;2023-07-29T00:33:03;21.20;99.90
7842;DHT22;3966;51.052;13.820;2023-07-29T00:35:28;21.00;99.90
7842;DHT22;3966;51.052;13.820;2023-07-29T00:37:54;21.00;99.90
7842;DHT22;3966;51.052;13.820;2023-07-29T00:40:21;21.20;99.90
7842;DHT22;3966;51.052;13.820;2023-07-29T00:42:47;21.20;99.90
7842;DHT22;3966;51.052;13.820;2023-07-29T00:45:13;21.00;99.90
7842;DHT22;3966;51.052;13.820;2023-07-29T00:47:39;21.10;99.90
7842;DHT22;3966;51.052;13.820;2023-07-29T00:50:06;21.20;99.90
7842;DHT22;3966;51.052;13.820;2023-07-29T00:52:32;21.10;99.90
7842;DHT22;3966;51.052;13.820;2023-07-29T00:54:58;21.00;99.90
7842;DHT22;3966;51.052;13.820;2023-07-29T00:57:25;21.00;99.90
7842;DHT22;3966;51.052;13.820;2023-07-29T00:59:52;20.80;99.90
7842;DHT22;3966;51.052;13.820;2023-07-29T01:02:17;20.80;99.90
7842;DHT22;3966;51.052;13.820;2023-07-29T01:04:43;20.90;99.90
7842;DHT22;3966;51.052;13.820;2023-07-29T01:13:08;21.10;99.90
7842;DHT22;3966;51.052;13.820;2023-07-29T01:16:03;20.90;99.90
7842;DHT22;3966;51.052;13.820;2023-07-29T01:18:32;20.70;99.90
7842;DHT22;3966;51.052;13.820;2023-07-29T01:21:04;20.90;99.90
7842;DHT22;3966;51.052;13.820;2023-07-29T01:23:36;21.00;99.90
7842;DHT22;3966;51.052;13.820;2023-07-29T01:26:03;20.80;99.90
7842;DHT22;3966;51.052;13.820;2023-07-29T01:28:29;20.80;99.90
7842;DHT22;3966;51.052;13.820;2023-07-29T01:31:27;20.80;99.90
7842;DHT22;3966;51.052;13.820;2023-07-29T01:34:19;20.90;99.90
7842;DHT22;3966;51.052;13.820;2023-07-29T01:36:50;20.90;99.90
7842;DHT22;3966;51.052;13.820;2023-07-29T01:39:17;20.70;99.90
7842;DHT22;3966;51.052;13.820;2023-07-29T01:41:44;20.70;99.90
7842;DHT22;3966;51.052;13.820;2023-07-29T01:44:11;20.70;99.90
7842;DHT22;3966;51.052;13.820;2023-07-29T01:46:37;20.70;99.90
7842;DHT22;3966;51.052;13.820;2023-07-29T01:49:03;20.70;99.90
7842;DHT22;3966;51.052;13.820;2023-07-29T01:51:29;20.70;99.90
7842;DHT22;3966;51.052;13.820;2023-07-29T01:53:54;20.70;99.90
7842;DHT22;3966;51.052;13.820;2023-07-29T01:56:21;20.80;99.90
7842;DHT22;3966;51.052;13.820;2023-07-29T01:58:46;20.60;99.90
7842;DHT22;3966;51.052;13.820;2023-07-29T02:01:12;20.30;99.90
7842;DHT22;3966;51.052;13.820;2023-07-29T02:03:38;20.40;99.90
7842;DHT22;3966;51.052;13.820;2023-07-29T02:06:04;20.50;99.90
7842;DHT22;3966;51.052;13.820;2023-07-29T02:08:30;20.50;99.90
7842;DHT22;3966;51.052;13.820;2023-07-29T02:10:56;20.60;99.90
7842;DHT22;3966;51.052;13.820;2023-07-29T02:13:22;20.50;99.90
7842;DHT22;3966;51.052;13.820;2023-07-29T02:15:47;20.30;99.90
7842;DHT22;3966;51.052;13.820;2023-07-29T02:18:13;20.30;99.90
7842;DHT22;3966;51.052;13.820;2023-07-29T02:20:38;20.10;99.90
7842;DHT22;3966;51.052;13.820;2023-07-29T02:23:04;20.00;99.90
7842;DHT22;3966;51.052;13.820;2023-07-29T02:25:30;20.10;99.90
7842;DHT22;3966;51.052;13.820;2023-07-29T02:27:55;20.10;99.90
7842;DHT22;3966;51.052;13.820;2023-07-29T02:30:21;20.20;99.90
7842;DHT22;3966;51.052;13.820;2023-07-29T02:32:47;20.30;99.90
7842;DHT22;3966;51.052;13.820;2023-07-29T02:35:12;20.30;99.90
7842;DHT22;3966;51.052;13.820;2023-07-29T02:37:38;20.10;99.90
7842;DHT22;3966;51.052;13.820;2023-07-29T02:40:04;19.70;99.90
7842;DHT22;3966;51.052;13.820;2023-07-29T02:42:31;19.90;99.90
7842;DHT22;3966;51.052;13.820;2023-07-29T02:44:57;19.90;99.90
7842;DHT22;3966;51.052;13.820;2023-07-29T02:47:22;19.90;99.90
7842;DHT22;3966;51.052;13.820;2023-07-29T02:49:48;19.70;99.90
7842;DHT22;3966;51.052;13.820;2023-07-29T02:52:13;19.60;99.90
7842;DHT22;3966;51.052;13.820;2023-07-29T02:54:39;19.40;99.90
7842;DHT22;3966;51.052;13.820;2023-07-29T02:57:05;19.40;99.90
7842;DHT22;3966;51.052;13.820;2023-07-29T02:59:30;19.60;99.90
7842;DHT22;3966;51.052;13.820;2023-07-29T03:01:56;19.70;99.90
7842;DHT22;3966;51.052;13.820;2023-07-29T03:04:21;19.80;99.90
7842;DHT22;3966;51.052;13.820;2023-07-29T03:06:48;19.80;99.90
7842;DHT22;3966;51.052;13.820;2023-07-29T03:09:14;19.80;99.90
7842;DHT22;3966;51.052;13.820;2023-07-29T03:11:39;19.70;99.90
7842;DHT22;3966;51.052;13.820;2023-07-29T03:14:05;19.80;99.90
7842;DHT22;3966;51.052;13.820;2023-07-29T03:16:31;19.90;99.90
7842;DHT22;3966;51.052;13.820;2023-07-29T03:18:57;19.80;99.90
7842;DHT22;3966;51.052;13.820;2023-07-29T03:21:23;19.90;99.90
7842;DHT22;3966;51.052;13.820;2023-07-29T03:23:48;20.00;99.90
7842;DHT22;3966;51.052;13.820;2023-07-29T03:26:14;20.10;99.90
7842;DHT22;3966;51.052;13.820;2023-07-29T03:28:41;20.20;99.90
7842;DHT22;3966;51.052;13.820;2023-07-29T03:31:07;20.20;99.90
7842;DHT22;3966;51.052;13.820;2023-07-29T03:33:33;20.10;99.90
7842;DHT22;3966;51.052;13.820;2023-07-29T03:35:59;20.10;99.90
7842;DHT22;3966;51.052;13.820;2023-07-29T03:38:25;20.20;99.90
7842;DHT22;3966;51.052;13.820;2023-07-29T03:40:51;20.20;99.90
7842;DHT22;3966;51.052;13.820;2023-07-29T03:43:16;20.30;99.90
7842;DHT22;3966;51.052;13.820;2023-07-29T03:45:42;20.40;99.90
7842;DHT22;3966;51.052;13.820;2023-07-29T03:48:08;20.40;99.90
7842;DHT22;3966;51.052;13.820;2023-07-29T03:50:35;20.50;99.90
7842;DHT22;3966;51.052;13.820;2023-07-29T03:53:01;20.50;99.90
7842;DHT22;3966;51.052;13.820;2023-07-29T03:55:27;20.30;99.90
7842;DHT22;3966;51.052;13.820;2023-07-29T03:57:58;20.00;99.90
7842;DHT22;3966;51.052;13.820;2023-07-29T04:00:24;20.10;99.90
7842;DHT22;3966;51.052;13.820;2023-07-29T04:02:50;20.20;99.90
7842;DHT22;3966;51.052;13.820;2023-07-29T04:05:16;20.30;99.90
7842;DHT22;3966;51.052;13.820;2023-07-29T04:07:41;20.10;99.90
7842;DHT22;3966;51.052;13.820;2023-07-29T04:10:07;20.10;99.90
7842;DHT22;3966;51.052;13.820;2023-07-29T04:12:33;20.20;99.90
7842;DHT22;3966;51.052;13.820;2023-07-29T04:14:59;20.20;99.90
7842;DHT22;3966;51.052;13.820;2023-07-29T04:17:25;20.30;99.90
7842;DHT22;3966;51.052;13.820;2023-07-29T04:19:50;20.30;99.90
7842;DHT22;3966;51.052;13.820;2023-07-29T04:22:16;20.30;99.90
7842;DHT22;3966;51.052;13.820;2023-07-29T04:24:42;20.40;99.90
7842;DHT22;3966;51.052;13.820;2023-07-29T04:27:07;20.40;99.90
7842;DHT22;3966;51.052;13.820;2023-07-29T04:29:33;20.40;99.90
7842;DHT22;3966;51.052;13.820;2023-07-29T04:32:01;20.60;99.90
7842;DHT22;3966;51.052;13.820;2023-07-29T04:34:27;20.70;99.90
7842;DHT22;3966;51.052;13.820;2023-07-29T04:36:53;20.70;99.90
7842;DHT22;3966;51.052;13.820;2023-07-29T04:39:18;20.80;99.90
7842;DHT22;3966;51.052;13.820;2023-07-29T04:41:44;20.80;99.90
7842;DHT22;3966;51.052;13.820;2023-07-29T04:44:09;20.80;99.90
7842;DHT22;3966;51.052;13.820;2023-07-29T04:46:35;20.90;99.90
7842;DHT22;3966;51.052;13.820;2023-07-29T04:49:01;20.80;99.90
7842;DHT22;3966;51.052;13.820;2023-07-29T04:51:28;20.80;99.90
7842;DHT22;3966;51.052;13.820;2023-07-29T04:53:54;20.90;99.90
7842;DHT22;3966;51.052;13.820;2023-07-29T04:56:19;20.80;99.90
7842;DHT22;3966;51.052;13.820;2023-07-29T04:58:45;20.80;99.90
7842;DHT22;3966;51.052;13.820;2023-07-29T05:01:11;20.80;99.90
7842;DHT22;3966;51.052;13.820;2023-07-29T05:03:36;20.80;99.90
7842;DHT22;3966;51.052;13.820;2023-07-29T05:06:02;20.80;99.90
7842;DHT22;3966;51.052;13.820;2023-07-29T05:08:28;20.90;99.90
7842;DHT22;3966;51.052;13.820;2023-07-29T05:10:54;21.00;99.90
7842;DHT22;3966;51.052;13.820;2023-07-29T05:13:20;21.00;99.90
7842;DHT22;3966;51.052;13.820;2023-07-29T05:15:49;20.90;99.90
7842;DHT22;3966;51.052;13.820;2023-07-29T05:18:16;20.80;99.90
7842;DHT22;3966;51.052;13.820;2023-07-29T05:20:42;20.80;99.90
7842;DHT22;3966;51.052;13.820;2023-07-29T05:23:08;20.80;99.90
7842;DHT22;3966;51.052;13.820;2023-07-29T05:25:33;20.90;99.90
7842;DHT22;3966;51.052;13.820;2023-07-29T05:28:02;21.00;99.90
7842;DHT22;3966;51.052;13.820;2023-07-29T05:30:29;21.00;99.90
7842;DHT22;3966;51.052;13.820;2023-07-29T05:32:57;21.10;99.90
7842;DHT22;3966;51.052;13.820;2023-07-29T05:35:23;21.10;99.90
7842;DHT22;3966;51.052;13.820;2023-07-29T05:37:49;21.10;99.90
7842;DHT22;3966;51.052;13.820;2023-07-29T05:40:15;21.20;99.90
7842;DHT22;3966;51.052;13.820;2023-07-29T05:42:40;21.30;99.90
7842;DHT22;3966;51.052;13.820;2023-07-29T05:45:07;21.40;99.90
7842;DHT22;3966;51.052;13.820;2023-07-29T05:47:33;21.40;99.90
7842;DHT22;3966;51.052;13.820;2023-07-29T05:49:58;21.50;99.90
7842;DHT22;3966;51.052;13.820;2023-07-29T05:52:25;21.50;99.90
7842;DHT22;3966;51.052;13.820;2023-07-29T05:54:50;21.60;99.90
7842;DHT22;3966;51.052;13.820;2023-07-29T05:57:16;21.50;99.90
7842;DHT22;3966;51.052;13.820;2023-07-29T05:59:42;21.60;99.90
7842;DHT22;3966;51.052;13.820;2023-07-29T06:02:07;21.80;99.90
7842;DHT22;3966;51.052;13.820;2023-07-29T06:04:33;21.90;99.90
7842;DHT22;3966;51.052;13.820;2023-07-29T06:06:59;22.00;99.90
7842;DHT22;3966;51.052;13.820;2023-07-29T06:09:24;22.00;99.90
7842;DHT22;3966;51.052;13.820;2023-07-29T06:11:53;22.00;99.90
7842;DHT22;3966;51.052;13.820;2023-07-29T06:14:18;22.00;99.90
7842;DHT22;3966;51.052;13.820;2023-07-29T06:16:44;22.00;99.90
7842;DHT22;3966;51.052;13.820;2023-07-29T06:19:09;22.00;99.90
7842;DHT22;3966;51.052;13.820;2023-07-29T06:21:35;22.10;99.90
7842;DHT22;3966;51.052;13.820;2023-07-29T06:24:01;22.10;99.90
7842;DHT22;3966;51.052;13.820;2023-07-29T06:26:27;22.10;99.90
7842;DHT22;3966;51.052;13.820;2023-07-29T06:28:53;22.20;99.90
7842;DHT22;3966;51.052;13.820;2023-07-29T06:31:18;22.30;99.90
7842;DHT22;3966;51.052;13.820;2023-07-29T06:33:44;22.40;99.90
7842;DHT22;3966;51.052;13.820;2023-07-29T06:36:10;22.50;99.90
7842;DHT22;3966;51.052;13.820;2023-07-29T06:38:36;22.50;99.90
7842;DHT22;3966;51.052;13.820;2023-07-29T06:41:02;22.50;99.90
7842;DHT22;3966;51.052;13.820;2023-07-29T06:43:27;22.50;99.90
7842;DHT22;3966;51.052;13.820;2023-07-29T06:45:53;22.60;99.90
7842;DHT22;3966;51.052;13.820;2023-07-29T06:48:19;22.60;99.90
7842;DHT22;3966;51.052;13.820;2023-07-29T06:50:45;22.70;99.90
7842;DHT22;3966;51.052;13.820;2023-07-29T06:53:11;22.80;99.90
7842;DHT22;3966;51.052;13.820;2023-07-29T06:55:37;22.90;99.90
7842;DHT22;3966;51.052;13.820;2023-07-29T06:58:03;23.00;99.90
7842;DHT22;3966;51.052;13.820;2023-07-29T07:00:28;23.00;99.90
7842;DHT22;3966;51.052;13.820;2023-07-29T07:02:54;22.90;99.90
7842;DHT22;3966;51.052;13.820;2023-07-29T07:05:20;23.10;99.90
7842;DHT22;3966;51.052;13.820;2023-07-29T07:07:45;23.10;99.90
7842;DHT22;3966;51.052;13.820;2023-07-29T07:10:11;23.20;99.90
7842;DHT22;3966;51.052;13.820;2023-07-29T07:12:36;23.30;99.90
7842;DHT22;3966;51.052;13.820;2023-07-29T07:15:02;23.30;99.90
7842;DHT22;3966;51.052;13.820;2023-07-29T07:17:28;23.30;99.90
7842;DHT22;3966;51.052;13.820;2023-07-29T07:19:54;23.30;99.90
7842;DHT22;3966;51.052;13.820;2023-07-29T07:22:19;23.30;99.90
7842;DHT22;3966;51.052;13.820;2023-07-29T07:24:45;23.30;99.90
7842;DHT22;3966;51.052;13.820;2023-07-29T07:27:11;23.30;99.90
7842;DHT22;3966;51.052;13.820;2023-07-29T07:29:36;23.40;99.90
7842;DHT22;3966;51.052;13.820;2023-07-29T07:32:02;23.50;99.90
7842;DHT22;3966;51.052;13.820;2023-07-29T07:34:28;23.70;99.90
7842;DHT22;3966;51.052;13.820;2023-07-29T07:36:53;23.70;99.90
7842;DHT22;3966;51.052;13.820;2023-07-29T07:39:19;23.80;99.90
7842;DHT22;3966;51.052;13.820;2023-07-29T07:41:44;24.00;99.90
7842;DHT22;3966;51.052;13.820;2023-07-29T07:44:10;24.20;99.90
7842;DHT22;3966;51.052;13.820;2023-07-29T07:46:38;24.30;99.90
7842;DHT22;3966;51.052;13.820;2023-07-29T07:49:03;24.40;99.90
7842;DHT22;3966;51.052;13.820;2023-07-29T07:51:29;24.40;99.90
7842;DHT22;3966;51.052;13.820;2023-07-29T07:53:55;24.50;99.90
7842;DHT22;3966;51.052;13.820;2023-07-29T07:56:21;24.40;99.90
7842;DHT22;3966;51.052;13.820;2023-07-29T07:58:46;24.30;99.90
7842;DHT22;3966;51.052;13.820;2023-07-29T08:01:12;24.10;99.90
7842;DHT22;3966;51.052;13.820;2023-07-29T08:03:38;24.20;99.90
7842;DHT22;3966;51.052;13.820;2023-07-29T08:06:04;24.20;99.90
7842;DHT22;3966;51.052;13.820;2023-07-29T08:08:30;24.20;99.90
7842;DHT22;3966;51.052;13.820;2023-07-29T08:10:56;24.20;99.90
7842;DHT22;3966;51.052;13.820;2023-07-29T08:13:25;24.20;99.90
7842;DHT22;3966;51.052;13.820;2023-07-29T08:15:52;24.20;99.90
7842;DHT22;3966;51.052;13.820;2023-07-29T08:18:20;24.20;99.90
7842;DHT22;3966;51.052;13.820;2023-07-29T08:20:55;24.10;99.90
7842;DHT22;3966;51.052;13.820;2023-07-29T08:23:27;24.20;99.90
7842;DHT22;3966;51.052;13.820;2023-07-29T08:25:59;24.20;99.90
7842;DHT22;3966;51.052;13.820;2023-07-29T08:28:34;24.30;99.90
7842;DHT22;3966;51.052;13.820;2023-07-29T08:31:00;24.50;99.90
7842;DHT22;3966;51.052;13.820;2023-07-29T08:33:26;24.60;99.90
7842;DHT22;3966;51.052;13.820;2023-07-29T08:35:52;24.90;99.90
7842;DHT22;3966;51.052;13.820;2023-07-29T08:38:18;25.10;99.90
7842;DHT22;3966;51.052;13.820;2023-07-29T08:40:54;25.10;99.90
7842;DHT22;3966;51.052;13.820;2023-07-29T08:43:30;24.90;99.90
7842;DHT22;3966;51.052;13.820;2023-07-29T08:45:57;25.10;99.90
7842;DHT22;3966;51.052;13.820;2023-07-29T08:48:41;25.10;99.90
7842;DHT22;3966;51.052;13.820;2023-07-29T08:51:11;25.30;99.90
7842;DHT22;3966;51.052;13.820;2023-07-29T08:53:38;25.00;99.90
7842;DHT22;3966;51.052;13.820;2023-07-29T08:56:05;25.00;99.90
7842;DHT22;3966;51.052;13.820;2023-07-29T08:58:31;24.90;99.90
7842;DHT22;3966;51.052;13.820;2023-07-29T09:00:57;25.10;99.90
7842;DHT22;3966;51.052;13.820;2023-07-29T09:03:23;25.00;99.90
7842;DHT22;3966;51.052;13.820;2023-07-29T09:05:49;24.80;99.90
7842;DHT22;3966;51.052;13.820;2023-07-29T09:08:16;24.80;99.90
7842;DHT22;3966;51.052;13.820;2023-07-29T09:10:41;25.00;99.90
7842;DHT22;3966;51.052;13.820;2023-07-29T09:13:07;25.10;99.90
7842;DHT22;3966;51.052;13.820;2023-07-29T09:15:35;25.20;99.90
7842;DHT22;3966;51.052;13.820;2023-07-29T09:18:10;24.90;99.90
7842;DHT22;3966;51.052;13.820;2023-07-29T09:20:36;24.80;99.90
7842;DHT22;3966;51.052;13.820;2023-07-29T09:23:01;25.00;99.90
7842;DHT22;3966;51.052;13.820;2023-07-29T09:25:29;24.90;99.90
7842;DHT22;3966;51.052;13.820;2023-07-29T09:28:01;24.80;99.90
7842;DHT22;3966;51.052;13.820;2023-07-29T09:30:28;24.80;99.90
7842;DHT22;3966;51.052;13.820;2023-07-29T09:32:57;24.80;99.90
7842;DHT22;3966;51.052;13.820;2023-07-29T09:35:24;25.00;99.90
7842;DHT22;3966;51.052;13.820;2023-07-29T09:37:51;25.30;99.90
7842;DHT22;3966;51.052;13.820;2023-07-29T09:40:18;25.60;99.90
7842;DHT22;3966;51.052;13.820;2023-07-29T09:42:55;25.80;99.90
7842;DHT22;3966;51.052;13.820;2023-07-29T09:45:25;25.80;99.90
7842;DHT22;3966;51.052;13.820;2023-07-29T09:47:52;25.40;99.90
7842;DHT22;3966;51.052;13.820;2023-07-29T09:50:19;25.50;99.90
7842;DHT22;3966;51.052;13.820;2023-07-29T09:52:45;25.50;99.90
7842;DHT22;3966;51.052;13.820;2023-07-29T09:55:12;25.80;99.90
7842;DHT22;3966;51.052;13.820;2023-07-29T09:57:40;26.00;99.90
7842;DHT22;3966;51.052;13.820;2023-07-29T10:00:06;26.10;99.90
7842;DHT22;3966;51.052;13.820;2023-07-29T10:02:38;26.10;99.90
7842;DHT22;3966;51.052;13.820;2023-07-29T10:05:06;25.90;99.90
7842;DHT22;3966;51.052;13.820;2023-07-29T10:07:33;25.80;99.90
7842;DHT22;3966;51.052;13.820;2023-07-29T10:10:02;25.60;99.90
7842;DHT22;3966;51.052;13.820;2023-07-29T10:12:30;25.30;99.90
7842;DHT22;3966;51.052;13.820;2023-07-29T10:14:59;25.20;99.90
7842;DHT22;3966;51.052;13.820;2023-07-29T10:17:26;24.90;99.90
7842;DHT22;3966;51.052;13.820;2023-07-29T10:19:53;24.80;99.90
7842;DHT22;3966;51.052;13.820;2023-07-29T10:22:21;24.30;99.90
7842;DHT22;3966;51.052;13.820;2023-07-29T10:24:50;24.20;99.90
7842;DHT22;3966;51.052;13.820;2023-07-29T10:27:18;24.10;99.90
7842;DHT22;3966;51.052;13.820;2023-07-29T10:29:45;24.10;99.90
7842;DHT22;3966;51.052;13.820;2023-07-29T10:32:11;24.20;99.90
7842;DHT22;3966;51.052;13.820;2023-07-29T10:34:37;24.30;99.90
7842;DHT22;3966;51.052;13.820;2023-07-29T10:37:04;24.30;99.90
7842;DHT22;3966;51.052;13.820;2023-07-29T10:39:40;24.30;99.90
7842;DHT22;3966;51.052;13.820;2023-07-29T10:42:06;24.50;99.90
7842;DHT22;3966;51.052;13.820;2023-07-29T10:49:44;24.70;99.90
7842;DHT22;3966;51.052;13.820;2023-07-29T10:52:15;24.70;99.90
7842;DHT22;3966;51.052;13.820;2023-07-29T10:54:46;24.80;99.90
7842;DHT22;3966;51.052;13.820;2023-07-29T10:57:15;24.90;99.90
7842;DHT22;3966;51.052;13.820;2023-07-29T10:59:54;24.90;99.90
7842;DHT22;3966;51.052;13.820;2023-07-29T11:02:32;24.70;99.90
7842;DHT22;3966;51.052;13.820;2023-07-29T11:04:59;24.70;99.90
7842;DHT22;3966;51.052;13.820;2023-07-29T11:07:26;24.60;99.90
7842;DHT22;3966;51.052;13.820;2023-07-29T11:09:56;24.60;99.90
7842;DHT22;3966;51.052;13.820;2023-07-29T11:15:25;24.80;99.90
7842;DHT22;3966;51.052;13.820;2023-07-29T11:17:59;24.90;99.90
7842;DHT22;3966;51.052;13.820;2023-07-29T11:20:27;25.10;99.90
7842;DHT22;3966;51.052;13.820;2023-07-29T11:22:54;25.30;99.90
7842;DHT22;3966;51.052;13.820;2023-07-29T11:25:22;25.50;99.90
7842;DHT22;3966;51.052;13.820;2023-07-29T11:27:48;25.60;99.90
7842;DHT22;3966;51.052;13.820;2023-07-29T11:30:15;25.60;99.90
7842;DHT22;3966;51.052;13.820;2023-07-29T11:32:42;25.60;99.90
7842;DHT22;3966;51.052;13.820;2023-07-29T11:35:10;25.20;99.90
7842;DHT22;3966;51.052;13.820;2023-07-29T11:37:37;25.00;99.90
7842;DHT22;3966;51.052;13.820;2023-07-29T11:40:04;24.90;99.90
7842;DHT22;3966;51.052;13.820;2023-07-29T11:42:34;24.80;99.90
7842;DHT22;3966;51.052;13.820;2023-07-29T11:45:01;24.80;99.90
7842;DHT22;3966;51.052;13.820;2023-07-29T11:47:27;24.90;99.90
7842;DHT22;3966;51.052;13.820;2023-07-29T11:49:53;24.90;99.90
7842;DHT22;3966;51.052;13.820;2023-07-29T11:52:19;25.00;99.90
7842;DHT22;3966;51.052;13.820;2023-07-29T11:54:47;25.00;99.90
7842;DHT22;3966;51.052;13.820;2023-07-29T11:57:13;25.10;99.90
7842;DHT22;3966;51.052;13.820;2023-07-29T11:59:44;25.10;99.90
7842;DHT22;3966;51.052;13.820;2023-07-29T12:02:17;25.00;99.90
7842;DHT22;3966;51.052;13.820;2023-07-29T12:04:46;25.00;99.90
7842;DHT22;3966;51.052;13.820;2023-07-29T12:07:13;24.90;99.90
7842;DHT22;3966;51.052;13.820;2023-07-29T12:09:41;24.90;99.90
7842;DHT22;3966;51.052;13.820;2023-07-29T12:12:07;24.90;99.90
7842;DHT22;3966;51.052;13.820;2023-07-29T12:14:34;25.00;99.90
7842;DHT22;3966;51.052;13.820;2023-07-29T12:17:04;25.00;99.90
7842;DHT22;3966;51.052;13.820;2023-07-29T12:19:35;25.00;99.90
7842;DHT22;3966;51.052;13.820;2023-07-29T12:22:05;25.10;99.90
7842;DHT22;3966;51.052;13.820;2023-07-29T12:24:36;25.10;99.90
7842;DHT22;3966;51.052;13.820;2023-07-29T12:27:02;25.30;99.90
7842;DHT22;3966;51.052;13.820;2023-07-29T12:29:28;25.30;99.90
7842;DHT22;3966;51.052;13.820;2023-07-29T12:32:02;25.40;99.90
7842;DHT22;3966;51.052;13.820;2023-07-29T12:34:30;25.50;99.90
7842;DHT22;3966;51.052;13.820;2023-07-29T12:36:57;25.40;99.90
7842;DHT22;3966;51.052;13.820;2023-07-29T12:39:34;25.20;99.90
7842;DHT22;3966;51.052;13.820;2023-07-29T12:42:01;25.40;99.90
7842;DHT22;3966;51.052;13.820;2023-07-29T12:44:34;25.70;99.90
7842;DHT22;3966;51.052;13.820;2023-07-29T12:47:05;25.90;99.90
7842;DHT22;3966;51.052;13.820;2023-07-29T12:49:31;26.10;99.90
7842;DHT22;3966;51.052;13.820;2023-07-29T12:51:58;26.20;99.90
7842;DHT22;3966;51.052;13.820;2023-07-29T12:54:24;26.20;99.90
7842;DHT22;3966;51.052;13.820;2023-07-29T12:56:50;26.10;99.90
7842;DHT22;3966;51.052;13.820;2023-07-29T12:59:15;26.10;99.90
7842;DHT22;3966;51.052;13.820;2023-07-29T13:01:41;26.20;99.90
7842;DHT22;3966;51.052;13.820;2023-07-29T13:04:07;26.20;99.90
7842;DHT22;3966;51.052;13.820;2023-07-29T13:06:32;25.80;99.90
7842;DHT22;3966;51.052;13.820;2023-07-29T13:08:58;25.60;99.90
7842;DHT22;3966;51.052;13.820;2023-07-29T13:11:24;26.00;99.90
7842;DHT22;3966;51.052;13.820;2023-07-29T13:13:50;26.50;99.90
7842;DHT22;3966;51.052;13.820;2023-07-29T13:16:15;26.70;99.90
7842;DHT22;3966;51.052;13.820;2023-07-29T13:18:43;26.60;99.90
7842;DHT22;3966;51.052;13.820;2023-07-29T13:21:09;26.30;99.90
7842;DHT22;3966;51.052;13.820;2023-07-29T13:23:34;25.80;99.90
7842;DHT22;3966;51.052;13.820;2023-07-29T13:26:00;25.90;99.90
7842;DHT22;3966;51.052;13.820;2023-07-29T13:28:26;26.10;99.90
7842;DHT22;3966;51.052;13.820;2023-07-29T13:30:51;26.20;99.90
7842;DHT22;3966;51.052;13.820;2023-07-29T13:33:17;25.90;99.90
7842;DHT22;3966;51.052;13.820;2023-07-29T13:35:43;25.60;99.90
7842;DHT22;3966;51.052;13.820;2023-07-29T13:38:08;25.30;99.90
7842;DHT22;3966;51.052;13.820;2023-07-29T13:40:34;25.30;99.90
7842;DHT22;3966;51.052;13.820;2023-07-29T13:43:00;25.50;99.90
7842;DHT22;3966;51.052;13.820;2023-07-29T13:45:26;25.50;99.90
7842;DHT22;3966;51.052;13.820;2023-07-29T13:47:52;25.90;99.90
7842;DHT22;3966;51.052;13.820;2023-07-29T13:50:18;26.50;99.90
7842;DHT22;3966;51.052;13.820;2023-07-29T13:52:44;26.50;99.90
7842;DHT22;3966;51.052;13.820;2023-07-29T13:55:10;26.10;99.90
7842;DHT22;3966;51.052;13.820;2023-07-29T13:57:37;26.70;99.90
7842;DHT22;3966;51.052;13.820;2023-07-29T14:00:02;27.20;99.90
7842;DHT22;3966;51.052;13.820;2023-07-29T14:02:29;27.80;99.90
7842;DHT22;3966;51.052;13.820;2023-07-29T14:04:56;28.20;99.90
7842;DHT22;3966;51.052;13.820;2023-07-29T14:07:22;28.30;99.90
7842;DHT22;3966;51.052;13.820;2023-07-29T14:09:48;28.30;99.90
7842;DHT22;3966;51.052;13.820;2023-07-29T14:12:13;28.00;99.90
7842;DHT22;3966;51.052;13.820;2023-07-29T14:14:41;28.60;99.90
7842;DHT22;3966;51.052;13.820;2023-07-29T14:17:07;29.30;99.90
7842;DHT22;3966;51.052;13.820;2023-07-29T14:19:34;29.60;99.90
7842;DHT22;3966;51.052;13.820;2023-07-29T14:22:00;30.10;99.90
7842;DHT22;3966;51.052;13.820;2023-07-29T14:24:26;29.70;97.20
7842;DHT22;3966;51.052;13.820;2023-07-29T14:26:51;29.30;98.70
7842;DHT22;3966;51.052;13.820;2023-07-29T14:29:17;28.10;98.50
7842;DHT22;3966;51.052;13.820;2023-07-29T14:31:43;27.50;99.90
7842;DHT22;3966;51.052;13.820;2023-07-29T14:34:09;28.20;99.90
7842;DHT22;3966;51.052;13.820;2023-07-29T14:36:35;28.00;98.90
7842;DHT22;3966;51.052;13.820;2023-07-29T14:39:01;28.50;99.10
7842;DHT22;3966;51.052;13.820;2023-07-29T14:41:27;28.90;97.80
7842;DHT22;3966;51.052;13.820;2023-07-29T14:43:53;28.40;97.50
7842;DHT22;3966;51.052;13.820;2023-07-29T14:46:18;29.20;96.00
7842;DHT22;3966;51.052;13.820;2023-07-29T14:48:44;29.20;93.90
7842;DHT22;3966;51.052;13.820;2023-07-29T14:51:10;29.70;92.80
7842;DHT22;3966;51.052;13.820;2023-07-29T14:53:36;30.40;91.60
7842;DHT22;3966;51.052;13.820;2023-07-29T14:56:01;30.30;90.30
7842;DHT22;3966;51.052;13.820;2023-07-29T14:58:27;30.60;90.00
7842;DHT22;3966;51.052;13.820;2023-07-29T15:00:53;31.20;86.70
7842;DHT22;3966;51.052;13.820;2023-07-29T15:03:18;31.80;85.90
7842;DHT22;3966;51.052;13.820;2023-07-29T15:05:44;31.70;83.70
7842;DHT22;3966;51.052;13.820;2023-07-29T15:08:10;30.60;84.30
7842;DHT22;3966;51.052;13.820;2023-07-29T15:10:35;30.30;87.30
7842;DHT22;3966;51.052;13.820;2023-07-29T15:13:02;30.80;83.40
7842;DHT22;3966;51.052;13.820;2023-07-29T15:15:28;29.90;86.40
7842;DHT22;3966;51.052;13.820;2023-07-29T15:17:53;30.00;88.30
7842;DHT22;3966;51.052;13.820;2023-07-29T15:20:19;30.10;85.20
7842;DHT22;3966;51.052;13.820;2023-07-29T15:22:45;29.60;85.30
7842;DHT22;3966;51.052;13.820;2023-07-29T15:25:10;29.80;88.80
7842;DHT22;3966;51.052;13.820;2023-07-29T15:27:37;29.60;86.70
7842;DHT22;3966;51.052;13.820;2023-07-29T15:30:03;29.60;85.90
7842;DHT22;3966;51.052;13.820;2023-07-29T15:32:29;28.90;86.80
7842;DHT22;3966;51.052;13.820;2023-07-29T15:34:54;29.10;89.00
7842;DHT22;3966;51.052;13.820;2023-07-29T15:37:20;29.60;86.40
7842;DHT22;3966;51.052;13.820;2023-07-29T15:39:46;29.20;90.50
7842;DHT22;3966;51.052;13.820;2023-07-29T15:42:11;29.50;88.00
7842;DHT22;3966;51.052;13.820;2023-07-29T15:44:37;29.00;90.40
7842;DHT22;3966;51.052;13.820;2023-07-29T15:47:03;29.00;89.60
7842;DHT22;3966;51.052;13.820;2023-07-29T15:49:29;28.70;90.00
7842;DHT22;3966;51.052;13.820;2023-07-29T15:51:54;28.90;90.60
7842;DHT22;3966;51.052;13.820;2023-07-29T15:54:20;29.40;90.10
7842;DHT22;3966;51.052;13.820;2023-07-29T15:56:46;29.10;89.10